createdAt,value
2019-03-18T00:00:33.564Z,67.00
2019-03-18T00:03:03.265Z,67.20
2019-03-18T00:05:32.964Z,67.70
2019-03-18T00:08:02.665Z,67.90
2019-03-18T00:10:33.038Z,68.00
2019-03-18T00:13:02.680Z,67.40
2019-03-18T00:15:32.308Z,64.70
2019-03-18T00:18:01.900Z,64.40
2019-03-18T00:20:31.525Z,60.30
2019-03-18T00:23:01.119Z,60.40
2019-03-18T00:25:30.755Z,60.10
2019-03-18T00:28:00.379Z,59.20
2019-03-18T00:30:30.045Z,59.20
2019-03-18T00:32:59.662Z,59.00
2019-03-18T00:35:29.344Z,58.00
2019-03-18T00:37:58.974Z,57.40
2019-03-18T00:40:28.587Z,56.20
2019-03-18T00:42:58.210Z,56.20
2019-03-18T00:45:27.817Z,54.20
2019-03-18T00:47:57.426Z,52.90
2019-03-18T00:50:27.126Z,52.40
2019-03-18T00:52:56.720Z,52.10
2019-03-18T00:55:26.453Z,51.40
2019-03-18T00:57:56.041Z,51.40
2019-03-18T01:00:25.723Z,51.50
2019-03-18T01:02:55.367Z,51.10
2019-03-18T01:05:25.070Z,51.20
2019-03-18T01:07:54.682Z,49.60
2019-03-18T01:10:24.278Z,49.50
2019-03-18T01:12:53.971Z,49.30
2019-03-18T01:15:28.248Z,49.60
2019-03-18T01:17:54.924Z,49.30
2019-03-18T01:20:24.520Z,49.40
2019-03-18T01:22:54.160Z,49.70
2019-03-18T01:25:23.789Z,48.90
2019-03-18T01:27:53.480Z,49.10
2019-03-18T01:30:23.076Z,49.10
2019-03-18T01:32:52.837Z,49.80
2019-03-18T01:35:22.625Z,50.50
2019-03-18T01:37:52.223Z,51.60
2019-03-18T01:40:21.855Z,52.00
2019-03-18T01:42:51.436Z,52.70
2019-03-18T01:45:21.100Z,53.60
2019-03-18T01:47:50.830Z,54.90
2019-03-18T01:50:20.481Z,56.40
2019-03-18T01:52:50.095Z,59.10
2019-03-18T01:55:19.854Z,59.80
2019-03-18T01:57:49.467Z,64.20
2019-03-18T02:00:19.054Z,66.50
2019-03-18T02:02:51.691Z,66.50
2019-03-18T02:05:20.012Z,70.50
2019-03-18T02:07:49.600Z,69.60
2019-03-18T02:10:19.207Z,71.30
2019-03-18T02:12:48.830Z,73.70
2019-03-18T02:15:20.542Z,75.60
2019-03-18T02:17:50.131Z,75.80
2019-03-18T02:20:20.245Z,76.30
2019-03-18T02:22:49.989Z,77.80
2019-03-18T02:25:19.595Z,78.60
2019-03-18T02:27:49.295Z,78.30
2019-03-18T02:30:19.897Z,79.30
2019-03-18T02:32:49.588Z,76.40
2019-03-18T02:35:19.173Z,76.20
2019-03-18T02:37:48.780Z,73.00
2019-03-18T02:40:18.369Z,74.50
2019-03-18T02:42:47.993Z,76.80
2019-03-18T02:45:17.833Z,72.70
2019-03-18T02:47:47.421Z,74.50
2019-03-18T02:50:17.092Z,75.30
2019-03-18T02:52:46.719Z,76.50
2019-03-18T02:55:16.303Z,74.40
2019-03-18T02:57:45.915Z,75.20
2019-03-18T03:00:17.816Z,73.90
2019-03-18T03:02:47.404Z,81.50
2019-03-18T03:05:17.269Z,75.80
2019-03-18T03:07:46.889Z,77.10
2019-03-18T03:10:16.878Z,81.40
2019-03-18T03:12:46.497Z,82.50
2019-03-18T03:15:16.347Z,83.40
2019-03-18T03:17:45.961Z,84.60
2019-03-18T03:20:15.632Z,77.10
2019-03-18T03:22:45.221Z,80.50
2019-03-18T03:25:14.830Z,83.40
2019-03-18T03:27:44.435Z,86.10
2019-03-18T03:30:15.706Z,83.20
2019-03-18T03:32:45.421Z,77.60
2019-03-18T03:35:15.275Z,69.20
2019-03-18T03:37:44.926Z,69.90
2019-03-18T03:40:14.828Z,71.00
2019-03-18T03:42:44.519Z,72.60
2019-03-18T03:45:16.981Z,69.40
2019-03-18T03:47:46.592Z,74.70
2019-03-18T03:50:17.087Z,72.60
2019-03-18T03:52:46.699Z,77.70
2019-03-18T03:55:16.355Z,85.10
2019-03-18T03:57:46.319Z,86.10
2019-03-18T04:00:16.709Z,87.30
2019-03-18T04:02:46.319Z,82.90
2019-03-18T04:05:15.900Z,78.60
2019-03-18T04:07:45.595Z,76.30
2019-03-18T04:10:15.993Z,72.50
2019-03-18T04:12:45.681Z,77.70
2019-03-18T04:15:16.373Z,80.00
2019-03-18T04:17:46.004Z,76.60
2019-03-18T04:20:17.199Z,73.90
2019-03-18T04:22:46.788Z,72.90
2019-03-18T04:25:16.522Z,74.50
2019-03-18T04:27:46.799Z,74.30
2019-03-18T04:30:16.922Z,76.10
2019-03-18T04:32:46.507Z,79.70
2019-03-18T04:35:16.109Z,77.60
2019-03-18T04:37:45.699Z,79.60
2019-03-18T04:40:15.376Z,79.10
2019-03-18T04:42:45.065Z,81.20
2019-03-18T04:45:14.672Z,82.00
2019-03-18T04:47:44.259Z,81.40
2019-03-18T04:50:14.928Z,82.80
2019-03-18T04:52:44.518Z,84.40
2019-03-18T04:55:14.197Z,86.60
2019-03-18T04:57:43.790Z,87.60
2019-03-18T05:00:14.925Z,87.80
2019-03-18T05:02:44.501Z,86.90
2019-03-18T05:05:14.284Z,87.20
2019-03-18T05:07:43.979Z,88.00
2019-03-18T05:10:13.610Z,88.60
2019-03-18T05:12:43.238Z,89.50
2019-03-18T05:15:12.930Z,88.80
2019-03-18T05:17:42.558Z,88.80
2019-03-18T05:20:12.759Z,88.90
2019-03-18T05:22:42.378Z,89.20
2019-03-18T05:25:12.502Z,89.40
2019-03-18T05:27:42.421Z,88.90
2019-03-18T05:30:14.464Z,88.70
2019-03-18T05:32:44.199Z,88.70
2019-03-18T05:35:13.899Z,88.50
2019-03-18T05:37:43.562Z,88.30
2019-03-18T05:40:13.601Z,88.00
2019-03-18T05:42:43.209Z,87.60
2019-03-18T05:45:13.383Z,87.10
2019-03-18T05:47:43.061Z,87.80
2019-03-18T05:50:13.188Z,88.20
2019-03-18T05:52:42.790Z,88.30
2019-03-18T05:55:12.583Z,88.80
2019-03-18T05:57:42.168Z,89.40
2019-03-18T06:00:15.248Z,90.30
2019-03-18T06:02:46.964Z,89.30
2019-03-18T06:05:16.252Z,88.50
2019-03-18T06:07:45.836Z,88.40
2019-03-18T06:10:15.693Z,88.40
2019-03-18T06:12:45.363Z,82.50
2019-03-18T06:15:15.198Z,84.50
2019-03-18T06:17:52.120Z,86.30
2019-03-18T06:20:16.252Z,87.20
2019-03-18T06:22:45.871Z,86.70
2019-03-18T06:25:15.458Z,83.20
2019-03-18T06:27:45.068Z,83.30
2019-03-18T06:30:17.404Z,81.10
2019-03-18T06:32:47.006Z,79.50
2019-03-18T06:35:16.597Z,78.20
2019-03-18T06:37:46.272Z,78.00
2019-03-18T06:40:16.592Z,80.00
2019-03-18T06:42:46.178Z,77.60
2019-03-18T06:45:15.993Z,77.10
2019-03-18T06:47:45.578Z,76.30
2019-03-18T06:50:15.402Z,76.40
2019-03-18T06:52:45.087Z,76.30
2019-03-18T06:55:14.739Z,74.40
2019-03-18T06:57:44.457Z,73.90
2019-03-18T07:00:17.312Z,71.20
2019-03-18T07:02:48.619Z,68.80
2019-03-18T07:05:18.232Z,71.00
2019-03-18T07:07:47.884Z,71.80
2019-03-18T07:10:17.579Z,72.40
2019-03-18T07:12:47.574Z,70.90
2019-03-18T07:15:17.227Z,71.40
2019-03-18T07:17:46.988Z,70.20
2019-03-18T07:20:16.986Z,69.20
2019-03-18T07:22:46.654Z,69.40
2019-03-18T07:25:16.249Z,68.50
2019-03-18T07:27:45.828Z,70.80
2019-03-18T07:30:18.231Z,68.10
2019-03-18T07:32:47.922Z,65.20
2019-03-18T07:35:17.504Z,64.50
2019-03-18T07:37:47.189Z,66.60
2019-03-18T07:40:17.604Z,65.40
2019-03-18T07:42:47.274Z,64.20
2019-03-18T07:45:16.910Z,62.90
2019-03-18T07:47:46.495Z,63.00
2019-03-18T07:50:16.786Z,63.60
2019-03-18T07:52:46.447Z,63.00
2019-03-18T07:55:16.037Z,64.70
2019-03-18T07:57:45.659Z,63.90
2019-03-18T08:00:16.218Z,65.10
2019-03-18T08:02:45.810Z,64.90
2019-03-18T08:05:15.487Z,66.40
2019-03-18T08:07:45.080Z,65.50
2019-03-18T08:10:15.300Z,62.70
2019-03-18T08:12:44.893Z,65.40
2019-03-18T08:15:14.920Z,64.30
2019-03-18T08:17:44.534Z,65.70
2019-03-18T08:20:14.558Z,66.10
2019-03-18T08:22:44.215Z,67.30
2019-03-18T08:25:13.898Z,66.20
2019-03-18T08:27:43.480Z,66.50
2019-03-18T08:30:15.721Z,67.70
2019-03-18T08:32:45.291Z,67.40
2019-03-18T08:35:14.881Z,66.30
2019-03-18T08:37:44.499Z,66.60
2019-03-18T08:40:14.298Z,67.10
2019-03-18T08:42:43.905Z,67.60
2019-03-18T08:45:15.043Z,66.80
2019-03-18T08:47:44.699Z,67.40
2019-03-18T08:50:14.452Z,68.20
2019-03-18T08:52:44.121Z,68.90
2019-03-18T08:55:14.101Z,70.20
2019-03-18T08:57:43.712Z,71.60
2019-03-18T09:00:15.217Z,72.60
2019-03-18T09:02:44.902Z,73.50
2019-03-18T09:05:14.778Z,72.60
2019-03-18T09:07:44.387Z,73.60
2019-03-18T09:10:15.385Z,75.00
2019-03-18T09:12:45.076Z,74.40
2019-03-18T09:15:15.048Z,74.20
2019-03-18T09:17:44.634Z,74.10
2019-03-18T09:20:17.225Z,75.20
2019-03-18T09:22:46.971Z,75.00
2019-03-18T09:25:16.666Z,74.80
2019-03-18T09:27:46.258Z,71.10
2019-03-18T09:30:21.387Z,70.10
2019-03-18T09:32:51.077Z,71.60
2019-03-18T09:35:20.760Z,71.50
2019-03-18T09:37:50.340Z,72.70
2019-03-18T09:40:20.021Z,72.00
2019-03-18T09:42:49.711Z,71.20
2019-03-18T09:45:22.335Z,71.00
2019-03-18T09:47:51.950Z,70.80
2019-03-18T09:50:21.604Z,70.20
2019-03-18T09:52:51.216Z,68.80
2019-03-18T09:55:20.877Z,69.00
2019-03-18T09:57:50.569Z,69.60
2019-03-18T10:00:20.996Z,69.60
2019-03-18T10:02:50.604Z,68.10
2019-03-18T10:05:20.263Z,66.40
2019-03-18T10:07:49.948Z,67.30
2019-03-18T10:10:19.535Z,66.90
2019-03-18T10:12:49.158Z,66.70
2019-03-18T10:15:20.957Z,66.20
2019-03-18T10:17:50.640Z,66.20
2019-03-18T10:20:20.362Z,67.40
2019-03-18T10:22:49.951Z,67.20
2019-03-18T10:25:19.566Z,67.40
2019-03-18T10:27:49.185Z,65.60
2019-03-18T10:30:18.800Z,64.90
2019-03-18T10:32:48.412Z,63.40
2019-03-18T10:35:18.038Z,63.40
2019-03-18T10:37:47.628Z,63.20
2019-03-18T10:40:17.356Z,62.10
2019-03-18T10:42:46.939Z,62.70
2019-03-18T10:45:16.593Z,62.30
2019-03-18T10:47:46.280Z,62.60
2019-03-18T10:50:19.522Z,64.10
2019-03-18T10:52:49.120Z,62.10
2019-03-18T10:55:18.736Z,60.40
2019-03-18T10:57:48.331Z,61.10
2019-03-18T11:00:21.045Z,62.40
2019-03-18T11:02:50.688Z,60.40
2019-03-18T11:05:20.310Z,57.90
2019-03-18T11:07:51.738Z,58.30
2019-03-18T11:10:21.304Z,58.30
2019-03-18T11:12:50.958Z,59.20
2019-03-18T11:15:22.280Z,59.20
2019-03-18T11:17:51.942Z,58.40
2019-03-18T11:20:21.653Z,60.90
2019-03-18T11:22:51.300Z,59.40
2019-03-18T11:25:20.989Z,59.70
2019-03-18T11:27:50.573Z,59.90
2019-03-18T11:30:21.198Z,59.20
2019-03-18T11:32:50.915Z,59.00
2019-03-18T11:35:20.595Z,60.80
2019-03-18T11:37:50.266Z,60.70
2019-03-18T11:40:21.901Z,63.40
2019-03-18T11:42:51.485Z,63.60
2019-03-18T11:45:21.164Z,63.80
2019-03-18T11:47:50.823Z,62.90
2019-03-18T11:50:21.140Z,63.70
2019-03-18T11:52:50.867Z,64.30
2019-03-18T11:55:23.664Z,66.00
2019-03-18T11:57:53.388Z,68.10
2019-03-18T12:00:24.679Z,68.70
2019-03-18T12:02:54.372Z,68.60
2019-03-18T12:05:28.260Z,69.30
2019-03-18T12:07:58.014Z,69.10
2019-03-18T12:10:27.694Z,69.20
2019-03-18T12:12:57.276Z,68.40
2019-03-18T12:15:27.972Z,68.80
2019-03-18T12:17:57.590Z,69.10
2019-03-18T12:20:27.321Z,68.50
2019-03-18T12:22:56.940Z,68.90
2019-03-18T12:25:26.515Z,69.00
2019-03-18T12:27:56.198Z,69.10
2019-03-18T12:30:27.621Z,69.70
2019-03-18T12:32:57.272Z,68.30
2019-03-18T12:35:26.931Z,69.60
2019-03-18T12:37:56.526Z,69.70
2019-03-18T12:40:26.229Z,69.60
2019-03-18T12:42:55.868Z,69.00
2019-03-18T12:45:25.543Z,67.70
2019-03-18T12:47:55.129Z,68.50
2019-03-18T12:50:39.172Z,67.80
2019-03-18T12:52:57.826Z,67.60
2019-03-18T12:55:27.411Z,68.80
2019-03-18T12:57:57.268Z,67.00
2019-03-18T13:00:36.745Z,67.70
2019-03-18T13:03:06.564Z,67.40
2019-03-18T13:05:36.313Z,66.30
2019-03-18T13:08:06.137Z,64.70
2019-03-18T13:10:35.820Z,65.00
2019-03-18T13:13:05.481Z,63.10
2019-03-18T13:15:35.071Z,62.70
2019-03-18T13:18:04.843Z,62.70
2019-03-18T13:20:34.578Z,61.60
2019-03-18T13:23:04.340Z,60.40
2019-03-18T13:25:34.028Z,60.50
2019-03-18T13:28:03.648Z,58.10
2019-03-18T13:30:33.312Z,58.00
2019-03-18T13:33:02.941Z,58.20
2019-03-18T13:35:32.538Z,58.80
2019-03-18T13:38:02.163Z,58.60
2019-03-18T13:40:31.760Z,59.10
2019-03-18T13:43:01.647Z,58.70
2019-03-18T13:45:31.376Z,59.10
2019-03-18T13:48:01.123Z,60.20
2019-03-18T13:50:30.737Z,60.40
2019-03-18T13:53:00.470Z,59.70
2019-03-18T13:55:30.093Z,59.30
2019-03-18T13:57:59.758Z,59.60
2019-03-18T14:00:39.548Z,59.20
2019-03-18T14:03:09.770Z,58.30
2019-03-18T14:05:39.393Z,58.10
2019-03-18T14:08:09.010Z,57.70
2019-03-18T14:10:38.716Z,57.70
2019-03-18T14:13:08.374Z,57.50
2019-03-18T14:15:38.091Z,57.80
2019-03-18T14:18:07.783Z,57.60
2019-03-18T14:20:37.374Z,53.10
2019-03-18T14:23:07.149Z,51.30
2019-03-18T14:25:36.851Z,52.80
2019-03-18T14:28:06.580Z,51.60
2019-03-18T14:30:36.245Z,52.00
2019-03-18T14:33:05.948Z,52.80
2019-03-18T14:35:35.539Z,52.70
2019-03-18T14:38:05.301Z,51.70
2019-03-18T14:40:34.888Z,51.90
2019-03-18T14:43:04.587Z,50.30
2019-03-18T14:45:34.182Z,49.20
2019-03-18T14:48:03.820Z,49.60
2019-03-18T14:50:35.614Z,49.00
2019-03-18T14:53:05.408Z,48.50
2019-03-18T14:55:35.039Z,48.80
2019-03-18T14:58:04.689Z,49.90
2019-03-18T15:00:34.284Z,49.10
2019-03-18T15:03:03.972Z,53.20
2019-03-18T15:05:33.584Z,58.00
2019-03-18T15:08:03.200Z,59.60
2019-03-18T15:10:32.814Z,59.70
2019-03-18T15:13:02.434Z,59.90
2019-03-18T15:15:32.047Z,61.70
2019-03-18T15:18:01.656Z,62.90
2019-03-18T15:20:31.338Z,62.90
2019-03-18T15:23:01.101Z,63.60
2019-03-18T15:25:35.862Z,64.50
2019-03-18T15:28:05.606Z,67.00
2019-03-18T15:30:35.262Z,67.10
2019-03-18T15:33:05.017Z,68.20
2019-03-18T15:35:34.624Z,68.10
2019-03-18T15:38:04.440Z,69.20
2019-03-18T15:40:34.061Z,68.20
2019-03-18T15:43:03.646Z,66.60
2019-03-18T15:45:33.248Z,66.20
2019-03-18T15:48:02.942Z,66.30
2019-03-18T15:50:32.521Z,68.40
2019-03-18T15:53:02.274Z,68.30
2019-03-18T15:55:31.864Z,69.00
2019-03-18T15:58:01.549Z,68.10
2019-03-18T16:00:33.488Z,68.60
2019-03-18T16:03:03.095Z,67.40
2019-03-18T16:05:32.704Z,68.60
2019-03-18T16:08:02.317Z,69.90
2019-03-18T16:10:31.932Z,69.30
2019-03-18T16:13:01.590Z,70.50
2019-03-18T16:15:31.212Z,71.80
2019-03-18T16:18:00.887Z,72.20
2019-03-18T16:20:30.478Z,73.70
2019-03-18T16:23:00.092Z,75.90
2019-03-18T16:25:29.710Z,73.50
2019-03-18T16:27:59.400Z,74.50
2019-03-18T16:30:29.059Z,74.50
2019-03-18T16:32:58.672Z,75.20
2019-03-18T16:35:28.346Z,76.50
2019-03-18T16:37:57.974Z,75.60
2019-03-18T16:40:27.622Z,76.40
2019-03-18T16:42:57.206Z,75.70
2019-03-18T16:45:26.811Z,76.70
2019-03-18T16:47:56.395Z,78.60
2019-03-18T16:50:28.958Z,78.70
2019-03-18T16:52:58.541Z,78.20
2019-03-18T16:55:28.157Z,77.80
2019-03-18T16:57:57.818Z,79.70
2019-03-18T17:00:28.337Z,80.20
2019-03-18T17:02:57.989Z,79.50
2019-03-18T17:05:27.605Z,81.00
2019-03-18T17:07:57.218Z,81.00
2019-03-18T17:10:26.876Z,81.40
2019-03-18T17:12:56.549Z,81.70
2019-03-18T17:15:26.206Z,81.60
2019-03-18T17:17:55.816Z,82.50
2019-03-18T17:20:25.400Z,82.90
2019-03-18T17:22:55.016Z,82.60
2019-03-18T17:25:27.972Z,82.90
2019-03-18T17:27:57.582Z,80.60
2019-03-18T17:30:27.225Z,81.40
2019-03-18T17:32:56.791Z,81.50
2019-03-18T17:35:26.408Z,82.70
2019-03-18T17:37:55.989Z,83.30
2019-03-18T17:40:25.592Z,83.60
2019-03-18T17:42:55.207Z,83.40
2019-03-18T17:45:24.960Z,83.40
2019-03-18T17:47:54.551Z,85.30
2019-03-18T17:50:27.561Z,84.60
2019-03-18T17:53:02.881Z,84.30
2019-03-18T17:55:28.520Z,84.30
2019-03-18T17:57:58.134Z,84.40
2019-03-18T18:00:32.298Z,83.90
2019-03-18T18:03:00.845Z,85.00
2019-03-18T18:05:30.431Z,82.90
2019-03-18T18:08:00.049Z,84.90
2019-03-18T18:10:29.710Z,84.50
2019-03-18T18:12:59.327Z,84.30
2019-03-18T18:15:28.913Z,84.60
2019-03-18T18:17:58.529Z,84.40
2019-03-18T18:20:28.118Z,84.50
2019-03-18T18:22:57.740Z,84.60
2019-03-18T18:25:27.321Z,85.10
2019-03-18T18:27:56.909Z,85.90
2019-03-18T18:30:26.528Z,85.60
2019-03-18T18:32:56.114Z,85.00
2019-03-18T18:35:25.715Z,85.30
2019-03-18T18:37:55.319Z,85.10
2019-03-18T18:40:30.286Z,85.30
2019-03-18T18:42:59.897Z,85.20
2019-03-18T18:45:29.485Z,84.90
2019-03-18T18:47:59.104Z,86.30
2019-03-18T18:50:28.787Z,86.10
2019-03-18T18:52:58.375Z,87.40
2019-03-18T18:55:27.985Z,87.50
2019-03-18T18:57:57.575Z,84.60
2019-03-18T19:00:27.367Z,87.10
2019-03-18T19:02:56.916Z,88.00
2019-03-18T19:05:26.604Z,88.20
2019-03-18T19:07:57.565Z,88.00
2019-03-18T19:10:27.382Z,87.50
2019-03-18T19:12:57.034Z,82.30
2019-03-18T19:15:34.030Z,82.60
2019-03-18T19:18:03.790Z,84.20
2019-03-18T19:20:33.472Z,82.60
2019-03-18T19:23:03.149Z,84.10
2019-03-18T19:25:32.758Z,83.90
2019-03-18T19:28:02.675Z,84.70
2019-03-18T19:30:32.261Z,82.50
2019-03-18T19:33:01.886Z,82.00
2019-03-18T19:35:31.476Z,82.90
2019-03-18T19:38:01.061Z,82.60
2019-03-18T19:40:30.677Z,83.30
2019-03-18T19:43:00.265Z,84.10
2019-03-18T19:45:29.882Z,84.00
2019-03-18T19:47:59.470Z,84.10
2019-03-18T19:50:32.529Z,84.10
2019-03-18T19:55:54.936Z,84.20
2019-03-18T19:58:24.554Z,84.60
2019-03-18T20:00:54.138Z,85.00
2019-03-18T20:03:23.727Z,84.00
2019-03-18T20:05:53.337Z,84.60
2019-03-18T20:08:22.926Z,85.40
2019-03-18T20:10:52.538Z,85.00
2019-03-18T20:13:22.127Z,85.40
2019-03-18T20:15:51.743Z,85.50
2019-03-18T20:18:21.361Z,85.30
2019-03-18T20:20:50.995Z,85.40
2019-03-18T20:23:20.617Z,85.80
2019-03-18T20:25:50.314Z,86.00
2019-03-18T20:28:19.908Z,87.00
2019-03-18T20:30:49.534Z,87.40
2019-03-18T20:33:19.117Z,87.50
2019-03-18T20:35:48.733Z,87.00
2019-03-18T20:38:18.352Z,87.20
2019-03-18T20:40:47.967Z,87.10
2019-03-18T20:43:17.580Z,86.70
2019-03-18T20:45:47.206Z,86.40
2019-03-18T20:48:16.788Z,85.50
2019-03-18T20:50:46.409Z,85.20
2019-03-18T20:53:15.996Z,86.10
2019-03-18T20:55:45.609Z,86.10
2019-03-18T20:58:15.295Z,85.80
2019-03-18T21:00:44.882Z,86.00
2019-03-18T21:03:14.509Z,87.00
2019-03-18T21:05:44.120Z,88.40
2019-03-18T21:08:13.769Z,88.70
2019-03-18T21:10:43.380Z,87.70
2019-03-18T21:13:12.970Z,87.60
2019-03-18T21:15:42.579Z,87.40
2019-03-18T21:18:12.165Z,86.50
2019-03-18T21:20:41.821Z,85.70
2019-03-18T21:23:11.428Z,85.20
2019-03-18T21:25:41.017Z,85.60
2019-03-18T21:28:10.631Z,84.70
2019-03-18T21:30:40.217Z,83.30
2019-03-18T21:33:10.005Z,83.90
2019-03-18T21:35:39.830Z,85.50
2019-03-18T21:38:09.448Z,86.10
2019-03-18T21:40:39.100Z,85.60
2019-03-18T21:43:08.713Z,86.30
2019-03-18T21:45:38.301Z,87.10
2019-03-18T21:48:07.911Z,85.90
2019-03-18T21:50:37.521Z,85.50
2019-03-18T21:53:07.174Z,85.20
2019-03-18T21:55:38.317Z,85.80
2019-03-18T21:58:08.017Z,85.50
2019-03-18T22:00:37.670Z,86.00
2019-03-18T22:03:07.283Z,85.90
2019-03-18T22:05:36.891Z,86.70
2019-03-18T22:08:06.576Z,87.80
2019-03-18T22:10:36.234Z,85.90
2019-03-18T22:13:06.053Z,84.90
2019-03-18T22:15:35.705Z,85.80
2019-03-18T22:18:05.500Z,87.80
2019-03-18T22:20:35.116Z,88.20
2019-03-18T22:23:05.065Z,87.60
2019-03-18T22:25:34.871Z,87.30
2019-03-18T22:28:04.789Z,87.80
2019-03-18T22:30:34.464Z,87.20
2019-03-18T22:33:04.231Z,85.40
2019-03-18T22:35:33.818Z,85.10
2019-03-18T22:38:03.443Z,86.20
2019-03-18T22:40:33.050Z,84.50
2019-03-18T22:43:02.663Z,83.40
2019-03-18T22:45:32.244Z,83.20
2019-03-18T22:48:01.859Z,84.30
2019-03-18T22:50:31.445Z,82.20
2019-03-18T22:53:01.058Z,82.00
2019-03-18T22:55:30.643Z,82.60
2019-03-18T22:58:00.255Z,82.40
2019-03-18T23:00:50.001Z,84.20
2019-03-18T23:03:19.617Z,83.80
2019-03-18T23:05:49.211Z,85.00
2019-03-18T23:08:18.833Z,84.60
2019-03-18T23:10:48.423Z,85.60
2019-03-18T23:13:18.046Z,86.60
2019-03-18T23:15:47.633Z,86.40
2019-03-18T23:18:17.284Z,86.60
2019-03-18T23:20:46.897Z,87.50
2019-03-18T23:23:16.487Z,83.30
2019-03-18T23:25:46.093Z,81.60
2019-03-18T23:28:15.681Z,81.20
2019-03-18T23:30:45.300Z,80.40
2019-03-18T23:33:14.899Z,79.20
2019-03-18T23:35:44.488Z,79.00
2019-03-18T23:38:14.105Z,79.20
2019-03-18T23:40:43.690Z,83.40
2019-03-18T23:43:13.302Z,84.70
2019-03-18T23:45:42.889Z,85.80
2019-03-18T23:48:12.499Z,87.20
2019-03-18T23:50:42.108Z,88.00
2019-03-18T23:53:11.709Z,88.20
2019-03-18T23:55:41.308Z,86.80
2019-03-18T23:58:10.929Z,86.70
